Time;durP1;ratioP1;P1;durP2;ratioP2;P2;SDS_P1;SDS_P2;PMS_P1;PMS_P2;Temp;Humidity;BMP_temperature;BMP_pressure;BME280_temperature;BME280_humidity;BME280_pressure;Samples;Min_cycle;Max_cycle;Signal;HPM_P1;HPM_P2
2023/07/14 00:02:16;;;;;;;1.83;1.25;;;19.00;98.10;;;19.40;96.92;101180.66;5218421;28;20546;-51
2023/07/14 00:04:48;;;;;;;1.80;1.10;;;19.00;98.30;;;19.40;97.00;101177.16;5217968;28;20582;-53
2023/07/14 00:07:21;;;;;;;1.95;1.27;;;19.00;98.50;;;19.41;97.36;101178.91;5218102;28;20056;-53
2023/07/14 00:09:58;;;;;;;2.10;1.15;;;19.00;98.70;;;19.41;97.21;101178.91;5201656;28;20054;-51
2023/07/14 00:12:30;;;;;;;3.25;1.52;;;19.00;98.80;;;19.42;97.94;101178.03;5201417;28;20502;-51
2023/07/14 00:15:03;;;;;;;3.25;1.45;;;19.00;99.10;;;19.43;98.13;101177.16;5218388;28;20072;-52
2023/07/14 00:17:36;;;;;;;2.10;1.45;;;19.00;99.20;;;19.43;97.86;101167.47;5201460;28;20148;-51
2023/07/14 00:20:28;;;;;;;1.42;1.13;;;19.00;99.30;;;19.42;97.73;101163.03;5217154;28;20075;-51
2023/07/14 00:23:00;;;;;;;1.33;1.08;;;19.00;99.30;;;19.40;97.39;101162.16;5194890;28;20511;-51
2023/07/14 00:25:34;;;;;;;3.50;1.73;;;19.00;99.30;;;19.37;96.99;101156.88;5201026;28;20533;-52
2023/07/14 00:28:17;;;;;;;1.90;1.33;;;19.00;99.20;;;19.31;96.86;101155.97;5201319;28;20108;-51
2023/07/14 00:30:50;;;;;;;1.88;1.30;;;18.90;99.10;;;19.30;97.01;101148.88;5217590;28;20049;-54
2023/07/14 00:33:23;;;;;;;2.30;1.42;;;18.90;99.20;;;19.30;97.13;101154.16;5201097;28;20527;-52
2023/07/14 00:35:56;;;;;;;2.53;1.50;;;18.90;99.40;;;19.30;97.57;101156.81;5217829;28;20133;-53
2023/07/14 00:38:28;;;;;;;2.60;1.45;;;18.90;99.60;;;19.28;98.03;101156.81;5201071;28;20049;-52
2023/07/14 00:41:07;;;;;;;2.53;1.45;;;18.80;99.70;;;19.28;97.90;101153.28;5201101;28;20137;-52
2023/07/14 00:43:43;;;;;;;2.38;1.48;;;18.90;99.80;;;19.27;98.20;101157.69;5201108;28;20053;-53
2023/07/14 00:46:26;;;;;;;2.10;1.63;;;18.80;99.90;;;19.24;98.10;101148.00;5201040;28;20354;-53
2023/07/14 00:49:07;;;;;;;2.20;1.40;;;18.80;99.90;;;19.23;97.69;101143.59;5217473;28;20131;-50
2023/07/14 00:51:44;;;;;;;4.95;1.63;;;18.80;99.90;;;19.22;97.55;101147.09;5200367;28;20045;-51
2023/07/14 00:54:29;;;;;;;2.17;1.30;;;18.80;99.90;;;19.27;97.89;101155.06;5217760;28;20050;-52
2023/07/14 00:57:04;;;;;;;2.63;1.35;;;18.80;99.90;;;19.26;97.70;101150.66;5194073;28;20054;-51
2023/07/14 00:59:39;;;;;;;2.38;1.65;;;18.80;99.90;;;19.23;97.47;101148.88;5200499;28;20136;-52
2023/07/14 01:02:21;;;;;;;2.47;1.30;;;18.80;99.90;;;19.23;97.59;101146.25;5216894;28;20041;-51
2023/07/14 01:04:58;;;;;;;2.13;1.42;;;18.80;99.90;;;19.22;97.55;101155.03;5192966;28;20531;-51
2023/07/14 01:07:35;;;;;;;3.45;1.40;;;18.80;99.90;;;19.22;97.82;101157.66;5201904;28;20225;-51
2023/07/14 01:10:11;;;;;;;2.92;1.70;;;18.80;99.90;;;19.24;98.10;101157.69;5200428;28;20145;-51
2023/07/14 01:12:50;;;;;;;3.70;1.52;;;18.80;99.90;;;19.21;98.58;101150.63;5217121;28;20057;-52
2023/07/14 01:15:24;;;;;;;2.80;1.55;;;18.80;99.90;;;19.18;98.82;101145.34;5200556;28;20045;-52
2023/07/14 01:17:57;;;;;;;2.22;1.38;;;18.80;99.90;;;19.18;99.14;101142.69;5209007;28;20077;-51
2023/07/14 01:20:30;;;;;;;3.60;1.50;;;18.80;99.90;;;19.18;99.41;101145.34;5199895;28;20136;-52
2023/07/14 01:23:31;;;;;;;3.30;1.70;;;18.70;99.90;;;19.18;99.15;101147.09;5200341;28;20064;-51
2023/07/14 01:26:15;;;;;;;2.38;1.45;;;18.80;99.90;;;19.16;98.78;101152.34;5200597;28;20191;-52
2023/07/14 01:28:50;;;;;;;3.90;1.63;;;18.80;99.90;;;19.16;99.02;101152.34;5200478;28;20049;-52
2023/07/14 01:31:24;;;;;;;2.65;1.48;;;18.70;99.90;;;19.15;99.13;101155.00;5200306;28;20052;-51
2023/07/14 01:34:02;;;;;;;2.60;1.42;;;18.80;99.90;;;19.14;99.71;101154.09;5193213;28;20045;-51
2023/07/14 01:36:35;;;;;;;2.28;1.42;;;18.70;99.90;;;19.13;100.00;101162.03;5200111;28;20405;-51
2023/07/14 01:39:08;;;;;;;3.63;1.40;;;18.70;99.90;;;19.12;100.00;101155.88;5217046;28;20064;-51
2023/07/14 01:41:41;;;;;;;2.55;1.55;;;18.70;99.90;;;19.10;99.79;101149.66;5216398;28;20064;-51
2023/07/14 01:44:20;;;;;;;1.77;1.38;;;18.70;99.90;;;19.10;99.62;101152.31;5217027;28;20053;-51
2023/07/14 01:46:53;;;;;;;3.10;1.63;;;18.70;99.90;;;19.09;99.55;101150.53;5200006;28;20058;-51
2023/07/14 01:49:37;;;;;;;2.63;1.50;;;18.70;99.90;;;19.09;99.40;101163.75;5216652;28;20054;-52
2023/07/14 01:52:16;;;;;;;4.13;1.70;;;18.70;99.90;;;19.08;99.74;101156.72;5199859;28;20048;-51
2023/07/14 01:54:54;;;;;;;3.80;1.75;;;18.70;99.90;;;19.05;99.73;101154.06;5216797;28;20052;-52
2023/07/14 01:57:30;;;;;;;2.53;1.52;;;18.60;99.90;;;19.00;99.63;101150.50;5199843;28;20135;-51
2023/07/14 02:00:10;;;;;;;5.10;1.48;;;18.60;99.90;;;18.97;99.82;101156.66;5200151;28;20073;-53
2023/07/14 02:02:52;;;;;;;3.95;2.00;;;18.60;99.90;;;18.95;99.82;101152.22;5201209;28;20057;-51
2023/07/14 02:05:31;;;;;;;4.15;1.58;;;18.50;99.90;;;18.91;100.00;101147.81;5200240;28;20053;-53
2023/07/14 02:08:06;;;;;;;3.42;1.60;;;18.50;99.90;;;18.89;100.00;101154.84;5193012;28;20518;-52
2023/07/14 02:10:39;;;;;;;4.10;2.10;;;18.50;99.90;;;18.85;100.00;101150.44;5216386;28;20045;-52
2023/07/14 02:13:13;;;;;;;3.45;1.50;;;18.50;99.90;;;18.83;100.00;101157.44;5201446;28;20041;-52
2023/07/14 02:15:48;;;;;;;2.78;1.52;;;18.40;99.90;;;18.81;100.00;101151.25;5199827;28;20053;-52
2023/07/14 02:18:23;;;;;;;;;;;18.40;99.90;;;18.76;100.00;101145.06;5200257;28;20049;-51
2023/07/14 02:20:58;;;;;;;3.08;1.70;;;18.40;99.90;;;18.74;100.00;101149.47;5199596;28;20452;-52
2023/07/14 02:23:31;;;;;;;3.53;1.70;;;18.40;99.90;;;18.69;100.00;101142.38;5216286;28;20046;-50
2023/07/14 02:26:11;;;;;;;3.60;1.67;;;18.30;99.90;;;18.64;100.00;101135.25;5200033;28;20058;-52
2023/07/14 02:28:43;;;;;;;3.05;1.60;;;18.30;99.90;;;18.61;100.00;101136.13;5216107;28;20057;-51
2023/07/14 02:31:26;;;;;;;2.67;1.63;;;18.30;99.90;;;18.58;100.00;101145.78;5216410;28;20547;-52
2023/07/14 02:33:59;;;;;;;4.20;1.55;;;18.20;99.90;;;18.56;100.00;101142.25;5201160;28;20060;-52
2023/07/14 02:36:43;;;;;;;4.25;1.90;;;18.20;99.90;;;18.54;100.00;101149.28;5216368;28;20073;-51
2023/07/14 02:39:15;;;;;;;2.70;1.40;;;18.20;99.90;;;18.53;100.00;101148.41;5199890;28;20049;-50
2023/07/14 02:41:50;;;;;;;3.30;1.55;;;18.20;99.90;;;18.52;100.00;101146.63;5199431;28;20508;-51
2023/07/14 02:44:28;;;;;;;4.07;1.50;;;18.20;99.90;;;18.51;100.00;101144.84;5202755;28;20514;-52
2023/07/14 02:47:08;;;;;;;2.40;1.60;;;18.20;99.90;;;18.49;100.00;101148.34;5211952;28;20499;-51
2023/07/14 02:49:42;;;;;;;3.03;1.73;;;18.10;99.90;;;18.45;100.00;101144.78;5203035;28;20060;-52
2023/07/14 02:52:14;;;;;;;3.03;1.55;;;18.10;99.90;;;18.43;100.00;101146.53;5204643;28;20033;-53
2023/07/14 02:54:47;;;;;;;3.17;1.70;;;18.10;99.90;;;18.42;100.00;101155.34;5203289;28;20515;-52
2023/07/14 02:57:19;;;;;;;3.35;1.55;;;18.10;99.90;;;18.41;100.00;101143.00;5203443;28;20046;-51
2023/07/14 02:59:52;;;;;;;2.35;1.67;;;18.00;99.90;;;18.40;100.00;101136.84;5202433;28;20056;-51
2023/07/14 03:02:25;;;;;;;2.72;1.40;;;18.00;99.90;;;18.40;100.00;101138.63;5204566;28;20045;-51
2023/07/14 03:04:58;;;;;;;3.28;1.60;;;18.00;99.90;;;18.39;100.00;101137.72;5219757;28;20068;-51
2023/07/14 03:07:32;;;;;;;3.83;1.70;;;18.00;99.90;;;18.37;100.00;101139.44;5203097;28;20056;-50
2023/07/14 03:10:06;;;;;;;3.30;1.80;;;18.00;99.90;;;18.39;100.00;101139.50;5219207;28;20415;-50
2023/07/14 03:12:38;;;;;;;2.22;1.50;;;18.00;99.90;;;18.37;100.00;101139.44;5202704;28;20060;-51
2023/07/14 03:15:11;;;;;;;3.28;1.63;;;18.00;99.90;;;18.36;100.00;101140.31;5219509;28;20533;-51
2023/07/14 03:17:44;;;;;;;3.20;1.48;;;18.00;99.90;;;18.36;100.00;101142.09;5202577;28;20091;-53
2023/07/14 03:20:17;;;;;;;3.38;1.30;;;18.00;99.90;;;18.35;100.00;101142.97;5202523;28;20482;-51
2023/07/14 03:22:50;;;;;;;2.97;1.48;;;18.00;99.90;;;18.34;100.00;101143.84;5219276;28;20128;-52
2023/07/14 03:25:22;;;;;;;3.17;1.50;;;18.00;99.90;;;18.31;100.00;101142.03;5202826;28;20526;-51
2023/07/14 03:27:55;;;;;;;2.92;1.50;;;18.00;99.90;;;18.29;100.00;101127.97;5202572;28;20049;-51
2023/07/14 03:30:27;;;;;;;2.97;1.70;;;18.00;99.90;;;18.25;100.00;101130.53;5202563;28;20045;-50
2023/07/14 03:33:01;;;;;;;3.40;1.92;;;17.90;99.90;;;18.22;100.00;101130.53;5202200;28;20042;-51
2023/07/14 03:35:34;;;;;;;2.90;1.58;;;17.90;99.90;;;18.21;100.00;101134.03;5202449;28;20349;-52
2023/07/14 03:38:06;;;;;;;2.50;1.83;;;17.90;99.90;;;18.20;100.00;101130.53;5194899;28;20065;-51
2023/07/14 03:40:39;;;;;;;2.60;1.55;;;17.90;99.90;;;18.18;100.00;101125.22;5203429;28;20120;-51
2023/07/14 03:43:11;;;;;;;3.10;1.50;;;17.90;99.90;;;18.17;100.00;101128.72;5218962;28;20045;-51
2023/07/14 03:45:44;;;;;;;3.67;1.92;;;17.90;99.90;;;18.17;100.00;101131.38;5201490;28;20128;-51
2023/07/14 03:48:21;;;;;;;3.80;1.85;;;17.80;99.90;;;18.18;100.00;101130.50;5202314;28;20049;-53
2023/07/14 03:50:53;;;;;;;2.80;1.67;;;17.80;99.90;;;18.20;100.00;101127.00;5218476;28;20057;-50
2023/07/14 03:53:26;;;;;;;2.95;1.55;;;17.80;99.90;;;18.20;100.00;101127.00;5202318;28;20522;-51
2023/07/14 03:55:59;;;;;;;4.28;1.65;;;17.80;99.90;;;18.20;100.00;101129.66;5217296;28;20050;-51
2023/07/14 03:58:31;;;;;;;3.90;1.63;;;17.90;99.90;;;18.18;100.00;101125.22;5201918;28;20045;-51
2023/07/14 04:01:03;;;;;;;3.53;1.63;;;17.80;99.90;;;18.18;100.00;101122.56;5201484;28;20045;-51
2023/07/14 04:03:37;;;;;;;2.42;1.70;;;17.80;99.90;;;18.17;100.00;101125.22;5201957;28;20132;-52
2023/07/14 04:06:10;;;;;;;3.20;2.10;;;17.80;99.90;;;18.15;100.00;101121.69;5194461;28;20414;-51
2023/07/14 04:08:45;;;;;;;3.35;1.77;;;17.80;99.90;;;18.13;100.00;101120.78;5201480;28;20065;-51
2023/07/14 04:11:17;;;;;;;3.92;1.70;;;17.80;99.90;;;18.11;100.00;101125.16;5201443;28;20037;-53
2023/07/14 04:13:49;;;;;;;3.65;1.92;;;17.80;99.90;;;18.11;100.00;101126.03;5218319;28;20041;-51
2023/07/14 04:16:23;;;;;;;4.38;2.05;;;17.80;99.90;;;18.11;100.00;101126.03;5201601;28;20052;-50
2023/07/14 04:18:57;;;;;;;4.00;1.80;;;17.80;99.90;;;18.14;100.00;101118.16;5201428;28;20143;-53
2023/07/14 04:21:31;;;;;;;6.30;1.92;;;17.80;99.90;;;18.16;100.00;101126.97;5218378;28;20045;-51
2023/07/14 04:24:04;;;;;;;3.10;1.60;;;17.80;99.90;;;18.17;100.00;101118.16;5201398;28;20060;-52
2023/07/14 04:26:37;;;;;;;3.75;1.73;;;17.80;99.90;;;18.17;100.00;101120.81;5201750;28;20044;-51
2023/07/14 04:29:11;;;;;;;2.65;1.60;;;17.80;99.90;;;18.20;100.00;101119.09;5201248;28;20136;-51
2023/07/14 04:31:44;;;;;;;3.05;1.90;;;17.80;99.90;;;18.21;100.00;101120.84;5200903;28;20111;-50
2023/07/14 04:34:17;;;;;;;2.40;1.42;;;17.90;99.90;;;18.24;100.00;101116.47;5218280;28;20037;-52
2023/07/14 04:36:50;;;;;;;3.28;1.73;;;17.90;99.90;;;18.26;100.00;101112.13;5217813;28;20045;-51
2023/07/14 04:39:23;;;;;;;3.65;1.52;;;17.90;99.90;;;18.28;100.00;101099.81;5218153;28;20532;-51
2023/07/14 04:41:55;;;;;;;4.38;1.98;;;17.90;99.90;;;18.30;100.00;101107.72;5200417;28;20149;-50
2023/07/14 04:44:28;;;;;;;3.60;1.55;;;18.00;99.90;;;18.31;100.00;101102.44;5201333;28;20049;-51
2023/07/14 04:47:00;;;;;;;2.15;1.60;;;18.00;99.90;;;18.33;100.00;101100.72;5200933;28;20055;-51
2023/07/14 04:49:34;;;;;;;3.25;1.50;;;18.00;99.90;;;18.35;100.00;101106.91;5201104;28;20056;-52
2023/07/14 04:52:10;;;;;;;4.60;2.25;;;18.00;99.90;;;18.39;100.00;101108.69;5200235;28;20128;-51
2023/07/14 04:54:42;;;;;;;2.65;1.50;;;18.00;99.90;;;18.47;100.00;101105.22;5217747;28;20045;-50
2023/07/14 04:57:15;;;;;;;3.80;1.60;;;18.10;99.90;;;18.59;100.00;101111.50;5217512;28;20045;-51
2023/07/14 04:59:47;;;;;;;3.55;1.85;;;18.20;99.90;;;18.79;100.00;101113.41;5216964;28;20045;-51
2023/07/14 05:02:20;;;;;;;2.88;1.70;;;18.30;99.90;;;19.04;100.00;101110.03;5200956;28;20049;-51
2023/07/14 05:05:12;;;;;;;3.55;1.80;;;18.60;99.90;;;19.35;98.17;101110.16;5217124;28;20076;-51
2023/07/14 05:07:45;;;;;;;4.43;2.13;;;18.80;99.90;;;19.66;96.79;101117.34;5201231;28;20077;-51
2023/07/14 05:10:18;;;;;;;3.28;1.73;;;19.10;99.90;;;19.96;95.07;101105.06;5201850;28;20053;-49
2023/07/14 05:12:52;;;;;;;4.07;1.85;;;19.40;99.90;;;20.27;93.60;101106.81;5201374;28;20045;-50
2023/07/14 05:15:26;;;;;;;4.55;2.22;;;19.70;99.90;;;20.54;91.47;101105.13;5201553;28;20111;-49
2023/07/14 05:17:58;;;;;;;2.40;1.70;;;20.00;99.90;;;20.76;90.12;101101.53;5201532;28;20049;-49
2023/07/14 05:20:32;;;;;;;4.55;1.52;;;20.20;99.90;;;20.86;88.74;101097.06;5201727;28;20046;-50
2023/07/14 05:23:04;;;;;;;2.92;1.73;;;20.40;99.70;;;20.94;88.42;101105.91;5201549;28;20038;-50
2023/07/14 05:25:37;;;;;;;4.07;1.60;;;20.40;99.50;;;21.05;88.23;101106.72;5200711;28;20056;-50
2023/07/14 05:28:10;;;;;;;1.90;1.50;;;20.50;99.30;;;21.06;87.55;101097.94;5200645;28;20283;-49
2023/07/14 05:30:42;;;;;;;2.85;1.70;;;20.60;99.00;;;21.07;87.35;101104.09;5201685;28;20095;-47
2023/07/14 05:33:16;;;;;;;3.42;1.52;;;20.60;98.80;;;21.05;86.88;101098.78;5201351;28;20048;-49
2023/07/14 05:35:50;;;;;;;3.67;1.90;;;20.60;98.60;;;21.02;86.76;101100.59;5203055;28;20075;-47
2023/07/14 05:38:24;;;;;;;2.65;1.55;;;20.60;98.50;;;20.88;86.83;101094.44;5201116;28;20053;-47
2023/07/14 05:40:56;;;;;;;2.25;1.40;;;20.50;98.40;;;20.98;87.48;101096.16;5201312;28;20053;-46
2023/07/14 05:43:29;;;;;;;2.65;1.65;;;20.60;98.60;;;21.18;86.87;101096.09;5201175;28;20045;-49
2023/07/14 05:46:01;;;;;;;3.30;1.52;;;20.70;98.60;;;21.28;86.51;101085.50;5201399;28;20059;-49
2023/07/14 05:48:34;;;;;;;3.20;1.70;;;20.80;98.50;;;21.35;86.05;101081.91;5200778;28;20526;-48
2023/07/14 05:51:07;;;;;;;4.22;1.92;;;20.80;98.30;;;21.26;85.38;101084.59;5216816;28;20046;-49
2023/07/14 05:53:40;;;;;;;4.07;2.03;;;20.80;97.90;;;21.20;85.66;101083.72;5217554;28;20407;-48
2023/07/14 05:56:12;;;;;;;3.25;1.40;;;20.80;97.90;;;21.16;85.92;101088.16;5201494;28;20046;-48
2023/07/14 05:58:44;;;;;;;2.38;1.40;;;20.70;97.90;;;21.18;86.11;101083.72;5200072;28;20045;-49
2023/07/14 06:01:17;;;;;;;4.00;1.80;;;20.70;98.00;;;21.25;85.96;101093.41;5192760;28;20045;-49
2023/07/14 06:03:49;;;;;;;2.80;1.65;;;20.80;98.00;;;21.25;85.88;101090.75;5200202;28;20422;-48
2023/07/14 06:06:23;;;;;;;2.40;1.52;;;20.80;97.90;;;21.34;86.13;101090.75;5216765;28;20045;-48
2023/07/14 06:08:56;;;;;;;5.93;1.65;;;20.90;98.10;;;21.45;86.11;101088.03;5199838;28;20065;-48
2023/07/14 06:11:29;;;;;;;3.25;1.50;;;20.90;98.10;;;21.54;85.73;101093.31;5199756;28;20077;-49
2023/07/14 06:14:01;;;;;;;2.78;1.50;;;21.00;97.90;;;21.65;84.94;101086.19;5216508;28;20076;-48
2023/07/14 06:16:37;;;;;;;3.75;1.60;;;21.10;97.70;;;21.78;84.92;101086.06;5200235;28;20056;-48
2023/07/14 06:19:09;;;;;;;3.85;1.75;;;21.20;97.80;;;21.91;84.25;101088.66;5219484;28;20407;-49
2023/07/14 06:21:43;;;;;;;4.15;1.73;;;21.30;97.50;;;21.93;83.56;101097.50;5205065;28;20048;-48
2023/07/14 06:24:16;;;;;;;2.85;1.55;;;21.30;97.20;;;21.89;83.14;101090.44;5204322;28;20076;-48
2023/07/14 06:26:48;;;;;;;3.83;1.70;;;21.40;97.00;;;21.84;83.40;101089.59;5220335;28;20052;-49
2023/07/14 06:29:21;;;;;;;2.30;1.40;;;21.30;97.00;;;21.91;83.49;101083.34;5220637;28;20042;-49
2023/07/14 06:31:53;;;;;;;1.80;1.30;;;21.40;97.00;;;22.09;83.40;101082.34;5203522;28;20522;-48
2023/07/14 06:34:26;;;;;;;3.97;1.73;;;21.50;97.00;;;22.25;82.63;101072.50;5203591;28;20041;-49
2023/07/14 06:37:00;;;;;;;2.65;1.40;;;21.60;96.80;;;22.43;82.10;101071.41;5203380;28;20060;-48
2023/07/14 06:39:32;;;;;;;2.38;1.48;;;21.80;96.60;;;22.64;81.36;101067.69;5203680;28;20053;-48
2023/07/14 06:42:06;;;;;;;3.05;1.30;;;21.90;96.40;;;22.81;80.54;101062.19;5219856;28;20565;-48
2023/07/14 06:44:38;;;;;;;2.92;1.30;;;22.10;96.10;;;22.94;79.77;101064.72;5203347;28;20037;-49
2023/07/14 06:47:13;;;;;;;2.28;1.40;;;22.20;95.80;;;23.08;78.76;101061.00;5203204;28;20045;-49
2023/07/14 06:49:46;;;;;;;3.00;1.38;;;22.30;95.50;;;23.14;78.11;101060.94;5220023;28;20065;-48
2023/07/14 06:52:23;;;;;;;2.13;1.30;;;22.40;95.10;;;23.16;77.21;101059.16;5203308;28;20049;-49
2023/07/14 06:54:57;;;;;;;1.35;1.10;;;22.50;94.60;;;23.32;76.61;101050.06;5203385;28;20049;-49
2023/07/14 06:57:29;;;;;;;2.35;1.33;;;22.60;94.50;;;23.57;76.74;101047.94;5203402;28;20103;-48
2023/07/14 07:00:03;;;;;;;4.28;1.55;;;22.80;94.50;;;23.80;75.66;101048.50;5202843;28;20064;-47
2023/07/14 07:02:35;;;;;;;2.40;1.17;;;23.00;94.00;;;23.95;74.09;101049.16;5203638;28;20041;-49
2023/07/14 07:05:10;;;;;;;3.25;1.30;;;23.10;93.30;;;23.99;73.62;101042.84;5203243;28;20490;-47
2023/07/14 07:07:44;;;;;;;2.40;1.40;;;23.20;93.00;;;24.02;73.08;101049.03;5203292;28;20410;-48
2023/07/14 07:10:17;;;;;;;2.92;1.13;;;23.30;92.80;;;24.07;72.78;101035.66;5202552;28;20056;-48
2023/07/14 07:12:49;;;;;;;2.10;1.40;;;23.30;92.60;;;24.19;73.42;101034.53;5203125;28;20045;-48
2023/07/14 07:15:21;;;;;;;2.17;1.17;;;23.40;92.60;;;24.33;72.82;101032.53;5196276;28;20045;-47
2023/07/14 07:17:54;;;;;;;4.43;1.58;;;23.50;92.50;;;24.36;70.49;101033.38;5202924;28;20533;-47
2023/07/14 07:20:26;;;;;;;3.10;1.23;;;23.60;91.50;;;24.36;71.00;101040.47;5219711;28;20407;-46
2023/07/14 07:23:00;;;;;;;2.22;1.13;;;23.60;91.50;;;24.35;71.38;101028.94;5219174;28;20045;-47
2023/07/14 07:25:32;;;;;;;3.25;1.20;;;23.60;91.60;;;24.36;71.61;101033.38;5218915;28;20057;-47
2023/07/14 07:28:05;;;;;;;2.97;1.30;;;23.70;91.60;;;24.35;71.55;101025.41;5217213;28;20053;-49
2023/07/14 07:30:40;;;;;;;2.85;1.33;;;23.70;91.30;;;24.59;72.22;101024.97;5201931;28;20141;-49
2023/07/14 07:33:13;;;;;;;3.88;1.52;;;23.80;91.80;;;24.90;71.90;101034.97;5201128;28;20876;-49
2023/07/14 07:35:45;;;;;;;1.65;1.05;;;24.00;91.80;;;25.15;70.40;101020.25;5202676;28;20045;-50
2023/07/14 07:38:19;;;;;;;2.50;1.20;;;24.10;91.20;;;25.29;68.67;101027.06;5218425;28;20528;-49
2023/07/14 07:40:52;;;;;;;2.28;1.17;;;24.30;90.30;;;25.28;67.47;101030.66;5202204;28;20049;-49
2023/07/14 07:43:24;;;;;;;1.75;1.10;;;24.30;89.50;;;25.36;66.61;101028.69;5211021;28;20073;-49
2023/07/14 07:45:56;;;;;;;1.85;1.23;;;24.40;89.00;;;25.28;66.68;101026.19;5202105;28;20053;-49
2023/07/14 07:48:29;;;;;;;2.58;1.30;;;24.40;88.20;;;25.24;67.47;101018.31;5195306;28;20052;-49
2023/07/14 07:51:01;;;;;;;2.65;1.20;;;24.40;88.60;;;25.19;66.05;101014.88;5218273;28;20049;-50
2023/07/14 07:53:35;;;;;;;1.90;1.10;;;24.30;87.10;;;25.27;66.63;101004.91;5218273;28;20042;-50
2023/07/14 07:56:09;;;;;;;1.90;0.98;;;24.40;87.50;;;25.06;66.77;101012.47;5199963;28;20470;-49
2023/07/14 07:58:42;;;;;;;2.20;1.02;;;24.30;87.20;;;25.16;66.92;101007.78;5202138;28;20068;-49
2023/07/14 08:01:21;;;;;;;3.33;1.45;;;24.30;87.50;;;25.34;66.88;100999.38;5201353;28;20068;-49
2023/07/14 08:03:53;;;;;;;1.85;1.10;;;24.40;87.80;;;25.40;66.09;101001.03;5218406;28;20073;-49
2023/07/14 08:06:27;;;;;;;2.50;1.15;;;24.40;86.90;;;25.50;66.06;100991.91;5193991;28;20045;-49
2023/07/14 08:09:00;;;;;;;3.85;1.42;;;24.50;86.80;;;25.55;64.97;100992.66;5201276;28;20045;-49
2023/07/14 08:11:34;;;;;;;3.58;1.58;;;24.50;85.60;;;25.63;65.69;100993.38;5201646;28;20049;-49
2023/07/14 08:14:12;;;;;;;3.10;1.38;;;24.60;86.30;;;26.03;65.50;101000.44;5199633;28;20036;-50
2023/07/14 08:16:45;;;;;;;2.45;1.13;;;24.80;86.60;;;26.28;64.73;100994.41;5192355;28;20033;-49
2023/07/14 08:19:17;;;;;;;2.65;1.10;;;25.00;86.00;;;26.44;64.74;100990.44;5200600;28;20049;-50
2023/07/14 08:21:49;;;;;;;2.05;1.15;;;25.10;85.80;;;26.22;63.68;100991.00;5197861;28;20499;-50
2023/07/14 08:24:23;;;;;;;3.58;1.40;;;25.10;84.30;;;25.90;64.72;100985.63;5200484;28;20629;-50
2023/07/14 08:26:55;;;;;;;1.88;1.10;;;24.90;84.40;;;25.82;65.60;100977.81;5200735;28;20041;-49
2023/07/14 08:29:28;;;;;;;3.55;1.50;;;24.90;85.30;;;25.67;64.80;100976.34;5193386;28;20045;-49
2023/07/14 08:32:00;;;;;;;2.97;1.23;;;24.80;84.10;;;;;;5197204;28;20057;-50
2023/07/14 08:34:32;;;;;;;2.20;1.02;;;24.60;84.20;;;25.54;65.95;100982.91;5217092;28;20041;-49
2023/07/14 08:37:05;;;;;;;2.50;1.20;;;24.60;85.00;;;25.93;65.40;100977.53;5198540;28;20582;-50
2023/07/14 08:39:39;;;;;;;4.15;1.30;;;24.70;85.40;;;26.45;63.25;100976.16;5216628;28;20052;-51
2023/07/14 08:42:34;;;;;;;1.90;1.15;;;25.00;84.10;;;27.62;60.71;100974.41;5198153;28;20407;-50
2023/07/14 08:45:23;;;;;;;3.72;1.25;;;25.70;82.90;;;28.63;57.51;100976.28;5216882;28;20049;-50
2023/07/14 08:48:12;;;;;;;2.85;1.15;;;26.40;80.80;;;28.47;56.01;100975.97;5217344;28;20057;-49
2023/07/14 08:50:51;;;;;;;2.80;1.20;;;26.60;77.50;;;28.21;56.73;100974.19;5217550;28;20041;-51
2023/07/14 08:53:27;;;;;;;2.60;1.10;;;26.60;77.30;;;27.97;57.81;100975.03;5201011;28;20580;-49
2023/07/14 08:56:04;;;;;;;3.35;1.42;;;26.60;77.70;;;27.73;58.84;100972.28;5200673;28;20418;-50
2023/07/14 08:58:39;;;;;;;1.95;0.90;;;26.50;78.00;;;27.45;59.62;100966.03;5198153;28;20487;-48
2023/07/14 09:01:33;;;;;;;2.50;1.05;;;26.30;78.20;;;26.99;59.19;100968.31;5217229;28;20072;-48
2023/07/14 09:04:15;;;;;;;1.45;0.95;;;26.10;77.40;;;26.67;59.78;100961.28;5216994;28;20103;-49
2023/07/14 09:06:47;;;;;;;1.48;1.00;;;25.80;77.60;;;26.56;59.83;100960.72;5217442;28;20652;-50
2023/07/14 09:09:31;;;;;;;1.38;0.82;;;25.60;77.60;;;26.50;59.31;100966.22;5201724;28;20045;-49
2023/07/14 09:12:20;;;;;;;2.58;1.20;;;25.60;77.00;;;26.54;59.80;100951.88;5200333;28;20107;-50
2023/07/14 09:14:59;;;;;;;1.85;1.20;;;25.60;77.60;;;26.75;59.16;100947.69;5200483;28;20285;-49
2023/07/14 09:17:49;;;;;;;3.50;1.10;;;25.60;77.20;;;26.74;59.05;100946.81;5208355;28;20041;-49
2023/07/14 09:20:52;;;;;;;2.38;1.13;;;25.70;76.80;;;26.54;57.99;100948.28;5197115;28;20462;-50
2023/07/14 09:23:51;;;;;;;2.00;1.13;;;25.60;75.30;;;26.33;58.85;100944.41;5209358;28;20049;-49
2023/07/14 09:26:32;;;;;;;1.27;1.10;;;25.50;75.70;;;26.24;58.17;100935.72;5200078;28;20049;-49
2023/07/14 09:29:14;;;;;;;1.85;1.10;;;25.40;75.20;;;26.30;57.72;100940.03;5200141;28;20048;-49
2023/07/14 09:31:54;;;;;;;3.22;1.45;;;25.40;74.80;;;26.79;57.65;100936.81;5200053;28;20042;-49
2023/07/14 09:34:32;;;;;;;1.70;1.20;;;25.60;75.20;;;27.65;56.76;100926.13;5200196;28;20402;-49
2023/07/14 09:37:15;;;;;;;2.67;1.30;;;26.10;75.30;;;28.29;54.57;100923.00;5199929;28;20131;-49
2023/07/14 09:39:53;;;;;;;1.60;1.20;;;26.70;73.20;;;28.73;53.38;100917.81;5200443;28;20057;-50
2023/07/14 09:42:32;;;;;;;2.05;1.05;;;27.20;71.80;;;28.66;52.35;100922.53;5200324;28;20053;-51
2023/07/14 09:45:17;;;;;;;2.60;1.48;;;27.30;69.80;;;28.15;51.89;100925.31;5200113;28;20076;-50
2023/07/14 09:47:57;;;;;;;1.88;1.20;;;27.20;68.60;;;28.05;53.44;100922.97;5190650;28;20427;-51
2023/07/14 09:50:30;;;;;;;;;;;27.10;69.60;;;28.19;52.97;100914.44;5200097;28;20044;-50
2023/07/14 09:53:05;;;;;;;2.03;1.25;;;27.20;69.40;;;28.35;52.20;100922.78;5202809;28;19936;-50
2023/07/14 09:55:50;;;;;;;2.55;0.93;;;27.20;68.70;;;28.29;52.93;100918.50;5205449;28;20053;-51
2023/07/14 09:58:26;;;;;;;2.38;1.27;;;27.20;69.00;;;28.20;52.93;100913.50;5221530;28;20064;-49
2023/07/14 10:01:04;;;;;;;1.65;1.00;;;27.20;68.60;;;28.15;51.98;100902.06;5205216;28;20068;-49
2023/07/14 10:03:43;;;;;;;2.40;1.30;;;27.10;67.80;;;28.19;50.71;100900.16;5197621;28;20069;-49
2023/07/14 10:06:21;;;;;;;3.13;1.50;;;27.10;66.50;;;28.18;50.80;100899.28;5205149;28;20049;-49
2023/07/14 10:08:57;;;;;;;2.97;1.13;;;27.10;66.40;;;28.29;51.49;100893.50;5205460;28;20498;-50
2023/07/14 10:11:41;;;;;;;1.65;1.08;;;27.20;66.90;;;28.54;51.60;100886.31;5205035;28;20052;-50
2023/07/14 10:14:26;;;;;;;1.38;1.00;;;27.30;67.50;;;28.87;50.90;100881.44;5205131;28;20049;-50
2023/07/14 10:17:00;;;;;;;2.42;1.02;;;27.60;66.90;;;29.24;50.90;100884.50;5205324;28;20064;-50
2023/07/14 10:19:40;;;;;;;2.05;1.10;;;27.90;66.80;;;29.25;49.66;100881.75;5204920;28;20049;-50
2023/07/14 10:22:14;;;;;;;3.95;1.40;;;28.00;65.50;;;29.00;49.47;100878.31;5204588;28;20518;-51
2023/07/14 10:24:48;;;;;;;2.85;1.20;;;27.90;64.90;;;28.72;50.78;100882.06;5204095;28;20073;-47
2023/07/14 10:27:25;;;;;;;4.75;1.48;;;27.70;65.60;;;28.41;51.20;100871.63;5220737;28;20065;-46
2023/07/14 10:30:19;;;;;;;2.28;1.40;;;27.50;65.80;;;28.17;52.04;100876.09;5203161;28;20470;-47
2023/07/14 10:32:56;;;;;;;2.63;1.40;;;27.30;66.10;;;28.16;52.85;100855.56;5201214;28;20041;-49
2023/07/14 10:35:33;;;;;;;6.28;1.60;;;27.20;66.80;;;28.34;52.60;100849.56;5204766;28;20043;-50
2023/07/14 10:38:13;;;;;;;4.68;1.80;;;27.30;67.30;;;28.34;50.82;100852.22;5203416;28;20095;-50
2023/07/14 10:40:57;;;;;;;2.83;1.55;;;27.30;65.40;;;28.19;51.39;100842.06;5204930;28;20065;-50
2023/07/14 10:43:35;;;;;;;3.75;1.40;;;27.30;65.90;;;28.16;52.24;100846.66;5220045;28;20046;-49
2023/07/14 10:46:14;;;;;;;3.42;1.35;;;27.20;66.40;;;27.98;52.08;100840.19;5216066;28;20133;-49
2023/07/14 10:48:53;;;;;;;3.13;1.35;;;27.10;66.10;;;27.83;52.17;100836.25;5203196;28;20781;-49